sensor_id;sensor_type;location;lat;lon;timestamp;temperature;humidity
14884;DHT22;7534;50.762;7.000;2022-07-26T00:01:31;20.20;93.20
14884;DHT22;7534;50.762;7.000;2022-07-26T00:03:56;20.20;93.30
14884;DHT22;7534;50.762;7.000;2022-07-26T00:06:22;20.10;93.50
14884;DHT22;7534;50.762;7.000;2022-07-26T00:08:50;20.10;93.60
14884;DHT22;7534;50.762;7.000;2022-07-26T00:11:16;20.00;93.90
14884;DHT22;7534;50.762;7.000;2022-07-26T00:13:43;20.00;94.00
14884;DHT22;7534;50.762;7.000;2022-07-26T00:16:09;19.90;94.00
14884;DHT22;7534;50.762;7.000;2022-07-26T00:18:35;19.90;94.10
14884;DHT22;7534;50.762;7.000;2022-07-26T00:21:01;19.80;94.20
14884;DHT22;7534;50.762;7.000;2022-07-26T00:23:45;19.80;94.30
14884;DHT22;7534;50.762;7.000;2022-07-26T00:26:30;19.70;94.70
14884;DHT22;7534;50.762;7.000;2022-07-26T00:28:56;19.60;94.80
14884;DHT22;7534;50.762;7.000;2022-07-26T00:31:22;19.60;94.90
14884;DHT22;7534;50.762;7.000;2022-07-26T00:33:48;19.50;95.20
14884;DHT22;7534;50.762;7.000;2022-07-26T00:36:13;19.60;95.20
14884;DHT22;7534;50.762;7.000;2022-07-26T00:38:39;19.50;95.30
14884;DHT22;7534;50.762;7.000;2022-07-26T00:41:06;19.40;95.40
14884;DHT22;7534;50.762;7.000;2022-07-26T00:43:32;19.30;95.70
14884;DHT22;7534;50.762;7.000;2022-07-26T00:45:58;19.20;95.90
14884;DHT22;7534;50.762;7.000;2022-07-26T00:48:24;19.20;95.90
14884;DHT22;7534;50.762;7.000;2022-07-26T00:50:52;19.10;96.00
14884;DHT22;7534;50.762;7.000;2022-07-26T00:53:22;19.20;96.30
14884;DHT22;7534;50.762;7.000;2022-07-26T00:55:49;19.20;96.10
14884;DHT22;7534;50.762;7.000;2022-07-26T00:58:17;19.10;96.00
14884;DHT22;7534;50.762;7.000;2022-07-26T01:00:43;19.10;96.10
14884;DHT22;7534;50.762;7.000;2022-07-26T01:03:09;19.10;96.20
14884;DHT22;7534;50.762;7.000;2022-07-26T01:05:35;19.10;96.60
14884;DHT22;7534;50.762;7.000;2022-07-26T01:08:01;19.10;96.40
14884;DHT22;7534;50.762;7.000;2022-07-26T01:10:27;19.10;96.40
14884;DHT22;7534;50.762;7.000;2022-07-26T01:12:53;19.00;96.50
14884;DHT22;7534;50.762;7.000;2022-07-26T01:15:18;19.00;96.80
14884;DHT22;7534;50.762;7.000;2022-07-26T01:17:44;18.80;97.10
14884;DHT22;7534;50.762;7.000;2022-07-26T01:20:13;18.80;97.80
14884;DHT22;7534;50.762;7.000;2022-07-26T01:22:39;18.70;97.50
14884;DHT22;7534;50.762;7.000;2022-07-26T01:25:06;18.50;97.80
14884;DHT22;7534;50.762;7.000;2022-07-26T01:27:32;18.60;97.80
14884;DHT22;7534;50.762;7.000;2022-07-26T01:30:04;18.40;98.10
14884;DHT22;7534;50.762;7.000;2022-07-26T01:32:32;18.50;98.10
14884;DHT22;7534;50.762;7.000;2022-07-26T01:34:58;18.50;98.20
14884;DHT22;7534;50.762;7.000;2022-07-26T01:37:23;18.50;98.00
14884;DHT22;7534;50.762;7.000;2022-07-26T01:39:49;18.50;98.00
14884;DHT22;7534;50.762;7.000;2022-07-26T01:42:15;18.40;98.10
14884;DHT22;7534;50.762;7.000;2022-07-26T01:44:40;18.50;98.20
14884;DHT22;7534;50.762;7.000;2022-07-26T01:47:06;18.40;98.20
14884;DHT22;7534;50.762;7.000;2022-07-26T01:49:32;18.30;98.50
14884;DHT22;7534;50.762;7.000;2022-07-26T01:51:58;18.30;98.60
14884;DHT22;7534;50.762;7.000;2022-07-26T01:54:23;18.30;98.70
14884;DHT22;7534;50.762;7.000;2022-07-26T01:56:49;18.30;98.80
14884;DHT22;7534;50.762;7.000;2022-07-26T01:59:15;18.30;98.90
14884;DHT22;7534;50.762;7.000;2022-07-26T02:01:40;18.30;98.90
14884;DHT22;7534;50.762;7.000;2022-07-26T02:04:07;18.20;99.10
14884;DHT22;7534;50.762;7.000;2022-07-26T02:06:53;18.10;99.00
14884;DHT22;7534;50.762;7.000;2022-07-26T02:09:18;18.10;99.30
14884;DHT22;7534;50.762;7.000;2022-07-26T02:11:44;18.10;99.40
14884;DHT22;7534;50.762;7.000;2022-07-26T02:14:12;18.00;99.50
14884;DHT22;7534;50.762;7.000;2022-07-26T02:16:38;18.10;99.50
14884;DHT22;7534;50.762;7.000;2022-07-26T02:19:04;18.00;99.70
14884;DHT22;7534;50.762;7.000;2022-07-26T02:21:29;18.00;99.60
14884;DHT22;7534;50.762;7.000;2022-07-26T02:23:55;18.00;99.60
14884;DHT22;7534;50.762;7.000;2022-07-26T02:26:21;18.00;99.80
14884;DHT22;7534;50.762;7.000;2022-07-26T02:28:46;18.10;99.80
14884;DHT22;7534;50.762;7.000;2022-07-26T02:31:12;18.10;99.50
14884;DHT22;7534;50.762;7.000;2022-07-26T02:33:37;18.10;99.70
14884;DHT22;7534;50.762;7.000;2022-07-26T02:36:03;18.10;99.80
14884;DHT22;7534;50.762;7.000;2022-07-26T02:38:29;18.20;99.70
14884;DHT22;7534;50.762;7.000;2022-07-26T02:40:55;18.20;99.70
14884;DHT22;7534;50.762;7.000;2022-07-26T02:43:20;18.30;99.60
14884;DHT22;7534;50.762;7.000;2022-07-26T02:45:46;18.40;99.60
14884;DHT22;7534;50.762;7.000;2022-07-26T02:48:12;18.40;99.60
14884;DHT22;7534;50.762;7.000;2022-07-26T02:50:37;18.40;99.60
14884;DHT22;7534;50.762;7.000;2022-07-26T02:53:03;18.50;99.50
14884;DHT22;7534;50.762;7.000;2022-07-26T02:55:29;18.50;99.40
14884;DHT22;7534;50.762;7.000;2022-07-26T02:57:54;18.50;99.20
14884;DHT22;7534;50.762;7.000;2022-07-26T03:00:24;18.60;99.20
14884;DHT22;7534;50.762;7.000;2022-07-26T03:02:51;18.60;99.00
14884;DHT22;7534;50.762;7.000;2022-07-26T03:05:18;18.70;99.00
14884;DHT22;7534;50.762;7.000;2022-07-26T03:07:44;18.70;98.90
14884;DHT22;7534;50.762;7.000;2022-07-26T03:10:10;18.70;98.80
14884;DHT22;7534;50.762;7.000;2022-07-26T03:12:35;18.70;98.70
14884;DHT22;7534;50.762;7.000;2022-07-26T03:15:01;18.70;98.80
14884;DHT22;7534;50.762;7.000;2022-07-26T03:17:27;18.80;98.90
14884;DHT22;7534;50.762;7.000;2022-07-26T03:19:53;18.70;98.90
14884;DHT22;7534;50.762;7.000;2022-07-26T03:22:18;18.70;98.90
14884;DHT22;7534;50.762;7.000;2022-07-26T03:24:44;18.70;98.90
14884;DHT22;7534;50.762;7.000;2022-07-26T03:27:10;18.70;98.90
14884;DHT22;7534;50.762;7.000;2022-07-26T03:29:35;18.60;99.00
14884;DHT22;7534;50.762;7.000;2022-07-26T03:32:01;18.50;99.10
14884;DHT22;7534;50.762;7.000;2022-07-26T03:34:27;18.40;99.20
14884;DHT22;7534;50.762;7.000;2022-07-26T03:36:53;18.30;99.30
14884;DHT22;7534;50.762;7.000;2022-07-26T03:39:18;18.20;99.40
14884;DHT22;7534;50.762;7.000;2022-07-26T03:41:44;18.20;99.60
14884;DHT22;7534;50.762;7.000;2022-07-26T03:44:10;18.10;99.70
14884;DHT22;7534;50.762;7.000;2022-07-26T03:46:35;18.00;99.80
14884;DHT22;7534;50.762;7.000;2022-07-26T03:49:01;18.00;99.90
14884;DHT22;7534;50.762;7.000;2022-07-26T03:51:27;17.90;99.90
14884;DHT22;7534;50.762;7.000;2022-07-26T03:53:53;17.90;99.90
14884;DHT22;7534;50.762;7.000;2022-07-26T03:56:18;17.80;99.90
14884;DHT22;7534;50.762;7.000;2022-07-26T03:58:54;17.70;99.90
14884;DHT22;7534;50.762;7.000;2022-07-26T04:01:20;17.70;99.90
14884;DHT22;7534;50.762;7.000;2022-07-26T04:03:46;17.60;99.90
14884;DHT22;7534;50.762;7.000;2022-07-26T04:06:12;17.60;99.90
14884;DHT22;7534;50.762;7.000;2022-07-26T04:08:39;17.60;99.90
14884;DHT22;7534;50.762;7.000;2022-07-26T04:11:04;17.60;99.90
14884;DHT22;7534;50.762;7.000;2022-07-26T04:13:30;17.80;99.90
14884;DHT22;7534;50.762;7.000;2022-07-26T04:15:57;17.70;99.90
14884;DHT22;7534;50.762;7.000;2022-07-26T04:18:22;17.70;99.90
14884;DHT22;7534;50.762;7.000;2022-07-26T04:20:48;17.70;99.90
14884;DHT22;7534;50.762;7.000;2022-07-26T04:23:14;17.80;99.90
14884;DHT22;7534;50.762;7.000;2022-07-26T04:25:39;17.90;99.90
14884;DHT22;7534;50.762;7.000;2022-07-26T04:28:05;18.10;99.90
14884;DHT22;7534;50.762;7.000;2022-07-26T04:30:31;18.10;99.90
14884;DHT22;7534;50.762;7.000;2022-07-26T04:32:57;18.20;99.90
14884;DHT22;7534;50.762;7.000;2022-07-26T04:35:22;18.30;99.90
14884;DHT22;7534;50.762;7.000;2022-07-26T04:37:48;18.30;99.90
14884;DHT22;7534;50.762;7.000;2022-07-26T04:40:18;18.30;99.80
14884;DHT22;7534;50.762;7.000;2022-07-26T04:42:46;18.30;99.90
14884;DHT22;7534;50.762;7.000;2022-07-26T04:45:13;18.40;99.80
14884;DHT22;7534;50.762;7.000;2022-07-26T04:47:43;18.40;99.50
14884;DHT22;7534;50.762;7.000;2022-07-26T04:50:11;18.50;99.50
14884;DHT22;7534;50.762;7.000;2022-07-26T04:52:37;18.60;99.50
14884;DHT22;7534;50.762;7.000;2022-07-26T04:55:05;18.60;99.40
14884;DHT22;7534;50.762;7.000;2022-07-26T04:57:32;18.60;99.30
14884;DHT22;7534;50.762;7.000;2022-07-26T04:59:58;18.60;99.30
14884;DHT22;7534;50.762;7.000;2022-07-26T05:02:25;18.60;99.40
14884;DHT22;7534;50.762;7.000;2022-07-26T05:04:51;18.70;99.60
14884;DHT22;7534;50.762;7.000;2022-07-26T05:07:17;19.00;99.50
14884;DHT22;7534;50.762;7.000;2022-07-26T05:09:44;19.10;99.50
14884;DHT22;7534;50.762;7.000;2022-07-26T05:12:09;19.30;99.20
14884;DHT22;7534;50.762;7.000;2022-07-26T05:14:35;19.50;98.90
14884;DHT22;7534;50.762;7.000;2022-07-26T05:17:02;19.70;98.70
14884;DHT22;7534;50.762;7.000;2022-07-26T05:19:28;19.90;98.40
14884;DHT22;7534;50.762;7.000;2022-07-26T05:21:54;19.70;98.00
14884;DHT22;7534;50.762;7.000;2022-07-26T05:24:20;19.80;97.90
14884;DHT22;7534;50.762;7.000;2022-07-26T05:26:48;19.90;97.90
14884;DHT22;7534;50.762;7.000;2022-07-26T05:29:13;20.00;97.70
14884;DHT22;7534;50.762;7.000;2022-07-26T05:31:39;20.20;97.70
14884;DHT22;7534;50.762;7.000;2022-07-26T05:34:05;20.50;97.20
14884;DHT22;7534;50.762;7.000;2022-07-26T05:36:32;20.70;96.90
14884;DHT22;7534;50.762;7.000;2022-07-26T05:38:58;20.90;97.10
14884;DHT22;7534;50.762;7.000;2022-07-26T05:41:24;21.20;96.60
14884;DHT22;7534;50.762;7.000;2022-07-26T05:43:49;21.80;96.10
14884;DHT22;7534;50.762;7.000;2022-07-26T05:46:15;22.20;94.90
14884;DHT22;7534;50.762;7.000;2022-07-26T05:48:41;22.30;94.60
14884;DHT22;7534;50.762;7.000;2022-07-26T05:51:10;22.30;94.70
14884;DHT22;7534;50.762;7.000;2022-07-26T05:53:37;22.50;94.70
14884;DHT22;7534;50.762;7.000;2022-07-26T05:56:04;22.50;94.80
14884;DHT22;7534;50.762;7.000;2022-07-26T05:58:30;22.40;94.80
14884;DHT22;7534;50.762;7.000;2022-07-26T06:00:55;22.40;94.90
14884;DHT22;7534;50.762;7.000;2022-07-26T06:03:21;22.30;95.10
14884;DHT22;7534;50.762;7.000;2022-07-26T06:05:57;22.20;95.00
14884;DHT22;7534;50.762;7.000;2022-07-26T06:08:26;22.20;95.30
14884;DHT22;7534;50.762;7.000;2022-07-26T06:10:53;22.20;95.20
14884;DHT22;7534;50.762;7.000;2022-07-26T06:13:19;22.00;95.40
14884;DHT22;7534;50.762;7.000;2022-07-26T06:15:45;21.70;95.60
14884;DHT22;7534;50.762;7.000;2022-07-26T06:18:12;21.70;96.10
14884;DHT22;7534;50.762;7.000;2022-07-26T06:20:42;21.70;96.30
14884;DHT22;7534;50.762;7.000;2022-07-26T06:23:10;21.60;96.00
14884;DHT22;7534;50.762;7.000;2022-07-26T06:25:36;21.50;96.30
14884;DHT22;7534;50.762;7.000;2022-07-26T06:28:08;21.50;96.30
14884;DHT22;7534;50.762;7.000;2022-07-26T06:30:36;21.50;96.30
14884;DHT22;7534;50.762;7.000;2022-07-26T06:33:02;21.50;96.40
14884;DHT22;7534;50.762;7.000;2022-07-26T06:35:28;21.60;96.40
14884;DHT22;7534;50.762;7.000;2022-07-26T06:37:57;21.60;96.50
14884;DHT22;7534;50.762;7.000;2022-07-26T06:40:23;21.70;96.30
14884;DHT22;7534;50.762;7.000;2022-07-26T06:42:49;21.70;96.20
14884;DHT22;7534;50.762;7.000;2022-07-26T06:45:16;21.80;96.30
14884;DHT22;7534;50.762;7.000;2022-07-26T06:47:41;21.90;96.30
14884;DHT22;7534;50.762;7.000;2022-07-26T06:50:07;22.00;96.00
14884;DHT22;7534;50.762;7.000;2022-07-26T06:52:34;22.10;95.80
14884;DHT22;7534;50.762;7.000;2022-07-26T06:55:00;22.00;96.20
14884;DHT22;7534;50.762;7.000;2022-07-26T06:57:26;21.90;96.10
14884;DHT22;7534;50.762;7.000;2022-07-26T06:59:52;21.90;96.40
14884;DHT22;7534;50.762;7.000;2022-07-26T07:02:18;21.90;96.30
14884;DHT22;7534;50.762;7.000;2022-07-26T07:04:44;22.00;96.50
14884;DHT22;7534;50.762;7.000;2022-07-26T07:07:10;22.10;96.40
14884;DHT22;7534;50.762;7.000;2022-07-26T07:09:36;22.30;96.10
14884;DHT22;7534;50.762;7.000;2022-07-26T07:12:03;22.30;96.10
14884;DHT22;7534;50.762;7.000;2022-07-26T07:14:30;22.40;96.10
14884;DHT22;7534;50.762;7.000;2022-07-26T07:16:56;22.50;95.80
14884;DHT22;7534;50.762;7.000;2022-07-26T07:19:22;22.60;95.60
14884;DHT22;7534;50.762;7.000;2022-07-26T07:21:48;22.50;95.60
14884;DHT22;7534;50.762;7.000;2022-07-26T07:24:14;22.50;95.80
14884;DHT22;7534;50.762;7.000;2022-07-26T07:26:40;22.50;96.00
14884;DHT22;7534;50.762;7.000;2022-07-26T07:29:07;22.30;96.00
14884;DHT22;7534;50.762;7.000;2022-07-26T07:31:36;22.40;96.50
14884;DHT22;7534;50.762;7.000;2022-07-26T07:34:02;22.50;96.10
14884;DHT22;7534;50.762;7.000;2022-07-26T07:36:27;22.50;96.20
14884;DHT22;7534;50.762;7.000;2022-07-26T07:38:53;22.80;96.00
14884;DHT22;7534;50.762;7.000;2022-07-26T07:41:19;23.30;95.50
14884;DHT22;7534;50.762;7.000;2022-07-26T07:43:44;23.80;94.60
14884;DHT22;7534;50.762;7.000;2022-07-26T07:46:10;24.10;94.10
14884;DHT22;7534;50.762;7.000;2022-07-26T07:48:37;24.90;93.30
14884;DHT22;7534;50.762;7.000;2022-07-26T07:51:08;25.50;91.80
14884;DHT22;7534;50.762;7.000;2022-07-26T07:53:34;26.00;90.90
14884;DHT22;7534;50.762;7.000;2022-07-26T07:56:00;26.20;90.20
14884;DHT22;7534;50.762;7.000;2022-07-26T07:58:26;25.80;90.20
14884;DHT22;7534;50.762;7.000;2022-07-26T08:00:52;25.70;90.50
14884;DHT22;7534;50.762;7.000;2022-07-26T08:03:18;25.60;90.50
14884;DHT22;7534;50.762;7.000;2022-07-26T08:05:46;25.40;90.70
14884;DHT22;7534;50.762;7.000;2022-07-26T08:08:12;25.10;91.20
14884;DHT22;7534;50.762;7.000;2022-07-26T08:10:38;25.00;91.90
14884;DHT22;7534;50.762;7.000;2022-07-26T08:13:04;25.20;91.60
14884;DHT22;7534;50.762;7.000;2022-07-26T08:15:30;26.00;90.20
14884;DHT22;7534;50.762;7.000;2022-07-26T08:17:55;27.80;85.20
14884;DHT22;7534;50.762;7.000;2022-07-26T08:20:21;29.10;79.70
14884;DHT22;7534;50.762;7.000;2022-07-26T08:22:47;29.20;76.50
14884;DHT22;7534;50.762;7.000;2022-07-26T08:25:13;29.00;77.20
14884;DHT22;7534;50.762;7.000;2022-07-26T08:27:39;29.00;75.60
14884;DHT22;7534;50.762;7.000;2022-07-26T08:30:05;28.80;75.90
14884;DHT22;7534;50.762;7.000;2022-07-26T08:32:31;29.10;75.80
14884;DHT22;7534;50.762;7.000;2022-07-26T08:34:57;29.00;74.60
14884;DHT22;7534;50.762;7.000;2022-07-26T08:37:23;28.40;75.50
14884;DHT22;7534;50.762;7.000;2022-07-26T08:39:49;28.00;76.80
14884;DHT22;7534;50.762;7.000;2022-07-26T08:42:19;27.50;78.50
14884;DHT22;7534;50.762;7.000;2022-07-26T08:44:47;27.40;80.90
14884;DHT22;7534;50.762;7.000;2022-07-26T08:47:17;26.70;82.00
14884;DHT22;7534;50.762;7.000;2022-07-26T08:49:44;26.20;84.10
14884;DHT22;7534;50.762;7.000;2022-07-26T08:52:13;26.10;86.30
14884;DHT22;7534;50.762;7.000;2022-07-26T08:54:50;26.60;84.70
14884;DHT22;7534;50.762;7.000;2022-07-26T08:57:17;27.40;83.90
14884;DHT22;7534;50.762;7.000;2022-07-26T08:59:43;28.00;79.60
14884;DHT22;7534;50.762;7.000;2022-07-26T09:02:11;29.00;77.70
14884;DHT22;7534;50.762;7.000;2022-07-26T09:04:42;30.90;70.20
14884;DHT22;7534;50.762;7.000;2022-07-26T09:07:10;33.20;64.70
14884;DHT22;7534;50.762;7.000;2022-07-26T09:09:58;34.30;56.50
14884;DHT22;7534;50.762;7.000;2022-07-26T09:12:27;34.60;55.30
14884;DHT22;7534;50.762;7.000;2022-07-26T09:14:54;33.70;54.80
14884;DHT22;7534;50.762;7.000;2022-07-26T09:17:22;32.00;58.30
14884;DHT22;7534;50.762;7.000;2022-07-26T09:20:09;31.10;61.10
14884;DHT22;7534;50.762;7.000;2022-07-26T09:22:38;32.00;61.10
14884;DHT22;7534;50.762;7.000;2022-07-26T09:25:22;33.10;57.80
14884;DHT22;7534;50.762;7.000;2022-07-26T09:27:49;34.20;55.90
14884;DHT22;7534;50.762;7.000;2022-07-26T09:30:16;35.40;52.90
14884;DHT22;7534;50.762;7.000;2022-07-26T09:33:01;37.40;49.30
14884;DHT22;7534;50.762;7.000;2022-07-26T09:35:32;36.00;48.70
14884;DHT22;7534;50.762;7.000;2022-07-26T09:38:00;34.10;51.00
14884;DHT22;7534;50.762;7.000;2022-07-26T09:40:34;32.40;55.60
14884;DHT22;7534;50.762;7.000;2022-07-26T09:43:05;31.90;57.90
14884;DHT22;7534;50.762;7.000;2022-07-26T09:45:33;31.80;58.30
14884;DHT22;7534;50.762;7.000;2022-07-26T09:48:01;32.90;56.20
14884;DHT22;7534;50.762;7.000;2022-07-26T09:50:30;33.20;55.90
14884;DHT22;7534;50.762;7.000;2022-07-26T09:53:11;33.10;54.50
14884;DHT22;7534;50.762;7.000;2022-07-26T09:58:11;29.80;62.10
14884;DHT22;7534;50.762;7.000;2022-07-26T10:00:38;29.10;64.60
14884;DHT22;7534;50.762;7.000;2022-07-26T10:03:04;30.90;61.30
14884;DHT22;7534;50.762;7.000;2022-07-26T10:05:32;32.00;58.00
14884;DHT22;7534;50.762;7.000;2022-07-26T10:07:58;32.20;55.20
14884;DHT22;7534;50.762;7.000;2022-07-26T10:10:31;32.10;55.20
14884;DHT22;7534;50.762;7.000;2022-07-26T10:13:01;32.60;55.40
14884;DHT22;7534;50.762;7.000;2022-07-26T10:15:47;31.90;54.50
14884;DHT22;7534;50.762;7.000;2022-07-26T10:21:21;29.70;62.70
14884;DHT22;7534;50.762;7.000;2022-07-26T10:23:58;28.80;67.00
14884;DHT22;7534;50.762;7.000;2022-07-26T10:31:48;27.90;72.20
14884;DHT22;7534;50.762;7.000;2022-07-26T10:34:36;27.80;70.70
14884;DHT22;7534;50.762;7.000;2022-07-26T10:37:05;28.00;72.70
14884;DHT22;7534;50.762;7.000;2022-07-26T10:39:33;28.30;72.00
14884;DHT22;7534;50.762;7.000;2022-07-26T10:42:09;29.00;68.70
14884;DHT22;7534;50.762;7.000;2022-07-26T10:44:40;29.20;64.40
14884;DHT22;7534;50.762;7.000;2022-07-26T10:47:15;29.20;63.80
14884;DHT22;7534;50.762;7.000;2022-07-26T10:49:56;29.00;62.60
14884;DHT22;7534;50.762;7.000;2022-07-26T10:52:26;28.60;63.40
14884;DHT22;7534;50.762;7.000;2022-07-26T10:57:35;28.40;66.10
14884;DHT22;7534;50.762;7.000;2022-07-26T11:00:20;28.20;66.90
14884;DHT22;7534;50.762;7.000;2022-07-26T11:02:57;27.80;68.40
14884;DHT22;7534;50.762;7.000;2022-07-26T11:05:28;27.70;69.80
14884;DHT22;7534;50.762;7.000;2022-07-26T11:08:06;27.50;71.60
14884;DHT22;7534;50.762;7.000;2022-07-26T11:10:44;27.50;71.00
14884;DHT22;7534;50.762;7.000;2022-07-26T11:13:19;27.80;70.80
14884;DHT22;7534;50.762;7.000;2022-07-26T11:15:59;28.00;69.90
14884;DHT22;7534;50.762;7.000;2022-07-26T11:18:28;28.30;70.30
14884;DHT22;7534;50.762;7.000;2022-07-26T11:21:08;28.70;68.50
14884;DHT22;7534;50.762;7.000;2022-07-26T11:23:40;29.30;67.30
14884;DHT22;7534;50.762;7.000;2022-07-26T11:26:16;29.50;66.20
14884;DHT22;7534;50.762;7.000;2022-07-26T11:29:00;29.90;63.10
14884;DHT22;7534;50.762;7.000;2022-07-26T11:34:06;30.70;58.50
14884;DHT22;7534;50.762;7.000;2022-07-26T11:36:42;30.70;58.20
14884;DHT22;7534;50.762;7.000;2022-07-26T11:39:11;30.40;58.80
14884;DHT22;7534;50.762;7.000;2022-07-26T11:41:40;30.10;58.40
14884;DHT22;7534;50.762;7.000;2022-07-26T11:44:20;29.70;59.80
14884;DHT22;7534;50.762;7.000;2022-07-26T11:46:48;29.30;60.20
14884;DHT22;7534;50.762;7.000;2022-07-26T11:49:27;28.90;60.70
14884;DHT22;7534;50.762;7.000;2022-07-26T11:51:59;28.90;61.10
14884;DHT22;7534;50.762;7.000;2022-07-26T11:54:32;28.70;61.50
14884;DHT22;7534;50.762;7.000;2022-07-26T11:57:08;28.80;61.30
14884;DHT22;7534;50.762;7.000;2022-07-26T11:59:36;28.90;60.00
14884;DHT22;7534;50.762;7.000;2022-07-26T12:02:35;28.70;59.50
14884;DHT22;7534;50.762;7.000;2022-07-26T12:05:19;28.10;61.80
14884;DHT22;7534;50.762;7.000;2022-07-26T12:07:58;27.60;64.80
14884;DHT22;7534;50.762;7.000;2022-07-26T12:10:27;26.90;66.70
14884;DHT22;7534;50.762;7.000;2022-07-26T12:13:13;26.60;70.50
14884;DHT22;7534;50.762;7.000;2022-07-26T12:15:47;26.20;73.70
14884;DHT22;7534;50.762;7.000;2022-07-26T12:18:29;26.10;72.30
14884;DHT22;7534;50.762;7.000;2022-07-26T12:21:04;25.70;72.90
14884;DHT22;7534;50.762;7.000;2022-07-26T12:23:40;25.50;73.10
14884;DHT22;7534;50.762;7.000;2022-07-26T12:26:20;25.50;74.30
14884;DHT22;7534;50.762;7.000;2022-07-26T12:28:46;25.20;75.40
14884;DHT22;7534;50.762;7.000;2022-07-26T12:31:26;25.10;77.20
14884;DHT22;7534;50.762;7.000;2022-07-26T12:33:57;25.00;77.70
14884;DHT22;7534;50.762;7.000;2022-07-26T12:36:23;25.00;77.10
14884;DHT22;7534;50.762;7.000;2022-07-26T12:38:49;25.00;76.60
14884;DHT22;7534;50.762;7.000;2022-07-26T12:41:37;25.20;77.00
14884;DHT22;7534;50.762;7.000;2022-07-26T12:44:05;25.60;77.80
14884;DHT22;7534;50.762;7.000;2022-07-26T12:46:33;26.10;77.20
14884;DHT22;7534;50.762;7.000;2022-07-26T12:49:00;26.40;74.80
14884;DHT22;7534;50.762;7.000;2022-07-26T12:51:27;26.50;74.10
14884;DHT22;7534;50.762;7.000;2022-07-26T12:53:53;26.60;72.40
14884;DHT22;7534;50.762;7.000;2022-07-26T12:56:18;26.80;71.70
14884;DHT22;7534;50.762;7.000;2022-07-26T12:58:44;27.10;71.00
14884;DHT22;7534;50.762;7.000;2022-07-26T13:01:10;26.90;69.20
14884;DHT22;7534;50.762;7.000;2022-07-26T13:03:38;27.50;68.30
14884;DHT22;7534;50.762;7.000;2022-07-26T13:06:03;27.50;68.20
14884;DHT22;7534;50.762;7.000;2022-07-26T13:08:29;28.10;66.60
14884;DHT22;7534;50.762;7.000;2022-07-26T13:10:55;28.50;66.80
14884;DHT22;7534;50.762;7.000;2022-07-26T13:13:21;28.90;65.00
14884;DHT22;7534;50.762;7.000;2022-07-26T13:15:46;29.00;62.00
14884;DHT22;7534;50.762;7.000;2022-07-26T13:18:12;29.20;63.30
14884;DHT22;7534;50.762;7.000;2022-07-26T13:20:38;29.50;61.10
14884;DHT22;7534;50.762;7.000;2022-07-26T13:23:04;29.60;58.80
14884;DHT22;7534;50.762;7.000;2022-07-26T13:25:36;29.00;58.80
14884;DHT22;7534;50.762;7.000;2022-07-26T13:28:02;28.70;60.60
14884;DHT22;7534;50.762;7.000;2022-07-26T13:30:27;28.40;60.00
14884;DHT22;7534;50.762;7.000;2022-07-26T13:32:53;28.20;60.70
14884;DHT22;7534;50.762;7.000;2022-07-26T13:35:19;28.00;61.00
14884;DHT22;7534;50.762;7.000;2022-07-26T13:37:44;28.00;62.20
14884;DHT22;7534;50.762;7.000;2022-07-26T13:40:10;28.20;61.50
14884;DHT22;7534;50.762;7.000;2022-07-26T13:42:36;28.20;60.80
14884;DHT22;7534;50.762;7.000;2022-07-26T13:45:04;27.80;62.20
14884;DHT22;7534;50.762;7.000;2022-07-26T13:47:30;27.50;62.50
14884;DHT22;7534;50.762;7.000;2022-07-26T13:49:56;27.50;64.60
14884;DHT22;7534;50.762;7.000;2022-07-26T13:52:22;27.40;64.60
14884;DHT22;7534;50.762;7.000;2022-07-26T13:54:48;27.10;64.90
14884;DHT22;7534;50.762;7.000;2022-07-26T13:57:14;26.80;67.00
14884;DHT22;7534;50.762;7.000;2022-07-26T13:59:40;26.70;68.30
14884;DHT22;7534;50.762;7.000;2022-07-26T14:02:06;26.80;68.60
14884;DHT22;7534;50.762;7.000;2022-07-26T14:04:32;26.90;68.80
14884;DHT22;7534;50.762;7.000;2022-07-26T14:06:58;26.80;69.00
14884;DHT22;7534;50.762;7.000;2022-07-26T14:09:23;26.80;69.50
14884;DHT22;7534;50.762;7.000;2022-07-26T14:11:49;26.80;69.90
14884;DHT22;7534;50.762;7.000;2022-07-26T14:14:16;27.00;69.90
14884;DHT22;7534;50.762;7.000;2022-07-26T14:16:42;27.10;69.20
14884;DHT22;7534;50.762;7.000;2022-07-26T14:19:08;27.30;68.00
14884;DHT22;7534;50.762;7.000;2022-07-26T14:21:34;27.30;68.00
14884;DHT22;7534;50.762;7.000;2022-07-26T14:24:01;27.20;67.20
14884;DHT22;7534;50.762;7.000;2022-07-26T14:26:26;27.40;67.50
14884;DHT22;7534;50.762;7.000;2022-07-26T14:28:52;28.00;66.70
14884;DHT22;7534;50.762;7.000;2022-07-26T14:31:18;28.30;63.00
14884;DHT22;7534;50.762;7.000;2022-07-26T14:33:44;28.40;64.10
14884;DHT22;7534;50.762;7.000;2022-07-26T14:36:10;28.20;64.10
14884;DHT22;7534;50.762;7.000;2022-07-26T14:38:38;28.30;63.80
14884;DHT22;7534;50.762;7.000;2022-07-26T14:41:05;28.30;62.90
14884;DHT22;7534;50.762;7.000;2022-07-26T14:43:31;28.00;62.40
14884;DHT22;7534;50.762;7.000;2022-07-26T14:45:57;28.00;63.70
14884;DHT22;7534;50.762;7.000;2022-07-26T14:48:23;28.50;60.80
14884;DHT22;7534;50.762;7.000;2022-07-26T14:50:48;29.20;59.30
14884;DHT22;7534;50.762;7.000;2022-07-26T14:53:15;29.50;58.10
14884;DHT22;7534;50.762;7.000;2022-07-26T14:55:42;29.50;57.30
14884;DHT22;7534;50.762;7.000;2022-07-26T14:58:08;29.70;58.40
14884;DHT22;7534;50.762;7.000;2022-07-26T15:00:34;30.00;58.00
14884;DHT22;7534;50.762;7.000;2022-07-26T15:03:00;29.60;56.40
14884;DHT22;7534;50.762;7.000;2022-07-26T15:05:26;29.10;58.20
14884;DHT22;7534;50.762;7.000;2022-07-26T15:07:53;28.70;59.90
14884;DHT22;7534;50.762;7.000;2022-07-26T15:10:19;27.80;63.60
14884;DHT22;7534;50.762;7.000;2022-07-26T15:13:03;26.80;68.00
14884;DHT22;7534;50.762;7.000;2022-07-26T15:15:30;25.90;72.70
14884;DHT22;7534;50.762;7.000;2022-07-26T15:17:57;25.20;77.70
14884;DHT22;7534;50.762;7.000;2022-07-26T15:20:23;24.90;81.90
14884;DHT22;7534;50.762;7.000;2022-07-26T15:22:53;25.00;83.70
14884;DHT22;7534;50.762;7.000;2022-07-26T15:25:20;25.20;84.70
14884;DHT22;7534;50.762;7.000;2022-07-26T15:27:48;25.50;84.10
14884;DHT22;7534;50.762;7.000;2022-07-26T15:30:14;25.90;81.30
14884;DHT22;7534;50.762;7.000;2022-07-26T15:32:41;26.60;80.20
14884;DHT22;7534;50.762;7.000;2022-07-26T15:35:07;27.10;76.80
14884;DHT22;7534;50.762;7.000;2022-07-26T15:37:34;27.50;74.90
14884;DHT22;7534;50.762;7.000;2022-07-26T15:40:00;28.00;72.90
14884;DHT22;7534;50.762;7.000;2022-07-26T15:42:29;28.10;71.30
14884;DHT22;7534;50.762;7.000;2022-07-26T15:44:56;28.10;72.00
14884;DHT22;7534;50.762;7.000;2022-07-26T15:47:22;28.30;69.80
14884;DHT22;7534;50.762;7.000;2022-07-26T15:49:49;28.10;69.90
14884;DHT22;7534;50.762;7.000;2022-07-26T15:52:14;28.20;68.90
14884;DHT22;7534;50.762;7.000;2022-07-26T15:54:41;27.90;68.40
14884;DHT22;7534;50.762;7.000;2022-07-26T15:57:07;27.90;69.60
14884;DHT22;7534;50.762;7.000;2022-07-26T15:59:33;27.80;69.00
14884;DHT22;7534;50.762;7.000;2022-07-26T16:01:59;27.70;69.50
14884;DHT22;7534;50.762;7.000;2022-07-26T16:04:25;27.50;69.10
14884;DHT22;7534;50.762;7.000;2022-07-26T16:06:51;27.30;68.90